createdAt,value
2022-09-21T00:02:13.714Z,14.40
2022-09-21T00:04:40.704Z,14.40
2022-09-21T00:07:07.346Z,14.40
2022-09-21T00:09:33.996Z,14.40
2022-09-21T00:12:00.781Z,14.30
2022-09-21T00:14:27.962Z,14.30
2022-09-21T00:16:55.489Z,14.30
2022-09-21T00:19:22.185Z,14.20
2022-09-21T00:21:54.013Z,14.20
2022-09-21T00:24:20.694Z,14.20
2022-09-21T00:26:48.788Z,14.20
2022-09-21T00:29:15.600Z,14.20
2022-09-21T00:31:43.070Z,14.10
2022-09-21T00:34:09.747Z,14.10
2022-09-21T00:36:36.983Z,14.10
2022-09-21T00:39:11.253Z,14.00
2022-09-21T00:41:37.882Z,14.00
2022-09-21T00:44:16.444Z,14.00
2022-09-21T00:46:43.426Z,14.00
2022-09-21T00:49:10.103Z,13.90
2022-09-21T00:51:37.263Z,13.90
2022-09-21T00:54:09.476Z,13.80
2022-09-21T00:56:37.085Z,13.80
2022-09-21T00:59:04.066Z,13.80
2022-09-21T01:01:31.155Z,13.80
2022-09-21T01:03:57.977Z,13.70
2022-09-21T01:06:24.880Z,13.70
2022-09-21T01:08:53.714Z,13.60
2022-09-21T01:11:30.268Z,13.60
2022-09-21T01:14:15.766Z,13.60
2022-09-21T01:17:03.133Z,13.60
2022-09-21T01:19:29.769Z,13.60
2022-09-21T01:22:02.912Z,13.50
2022-09-21T01:24:39.858Z,13.50
2022-09-21T01:27:24.613Z,13.50
2022-09-21T01:30:02.433Z,13.40
2022-09-21T01:32:33.248Z,13.40
2022-09-21T01:35:08.140Z,13.40
2022-09-21T01:37:34.863Z,13.30
2022-09-21T01:40:04.909Z,13.30
2022-09-21T01:42:32.695Z,13.30
2022-09-21T01:45:01.988Z,13.20
2022-09-21T01:47:31.509Z,13.20
2022-09-21T01:50:00.272Z,13.20
2022-09-21T01:52:34.147Z,13.20
2022-09-21T01:55:06.535Z,13.20
2022-09-21T01:57:44.966Z,13.20
2022-09-21T02:00:11.865Z,13.20
2022-09-21T02:02:46.193Z,13.10
2022-09-21T02:05:13.228Z,13.10
2022-09-21T02:07:40.039Z,13.00
2022-09-21T02:10:08.317Z,13.00
2022-09-21T02:12:35.040Z,13.00
2022-09-21T02:15:02.831Z,12.90
2022-09-21T02:17:33.502Z,12.90
2022-09-21T02:20:03.274Z,12.80
2022-09-21T02:22:33.741Z,12.80
2022-09-21T02:25:06.596Z,12.70
2022-09-21T02:27:46.676Z,12.70
2022-09-21T02:30:23.747Z,12.80
2022-09-21T02:32:57.604Z,12.70
2022-09-21T02:35:51.238Z,12.70
2022-09-21T02:38:22.661Z,12.70
2022-09-21T02:41:07.932Z,12.70
2022-09-21T02:43:37.508Z,12.60
2022-09-21T02:46:08.701Z,12.60
2022-09-21T02:48:38.288Z,12.60
2022-09-21T02:51:14.119Z,12.60
2022-09-21T02:53:42.938Z,12.60
2022-09-21T02:56:11.565Z,12.60
2022-09-21T02:58:40.109Z,12.60
2022-09-21T03:01:10.104Z,12.50
2022-09-21T03:03:36.813Z,12.60
2022-09-21T03:06:03.531Z,12.50
2022-09-21T03:08:30.509Z,12.50
2022-09-21T03:10:57.891Z,12.60
2022-09-21T03:13:24.637Z,12.50
2022-09-21T03:15:59.111Z,12.50
2022-09-21T03:18:25.764Z,12.50
2022-09-21T03:20:52.512Z,12.50
2022-09-21T03:23:19.867Z,12.50
2022-09-21T03:25:46.631Z,12.50
2022-09-21T03:28:14.271Z,12.40
2022-09-21T03:30:41.332Z,12.40
2022-09-21T03:33:08.676Z,12.40
2022-09-21T03:35:35.361Z,12.40
2022-09-21T03:38:02.667Z,12.20
2022-09-21T03:40:31.251Z,12.20
2022-09-21T03:42:57.957Z,12.10
2022-09-21T03:45:30.496Z,12.10
2022-09-21T03:47:58.149Z,12.20
2022-09-21T03:50:25.886Z,12.10
2022-09-21T03:52:52.782Z,12.00
2022-09-21T03:55:19.770Z,12.00
2022-09-21T03:57:46.476Z,12.00
2022-09-21T04:00:13.613Z,12.00
2022-09-21T04:02:40.701Z,12.00
2022-09-21T04:05:11.840Z,12.00
2022-09-21T04:07:40.739Z,12.00
2022-09-21T04:10:08.191Z,12.00
2022-09-21T04:12:36.330Z,12.00
2022-09-21T04:15:06.568Z,12.00
2022-09-21T04:17:34.190Z,11.90
2022-09-21T04:20:01.231Z,11.90
2022-09-21T04:22:27.884Z,11.90
2022-09-21T04:24:55.334Z,12.00
2022-09-21T04:27:22.023Z,11.90
2022-09-21T04:29:49.498Z,11.90
2022-09-21T04:32:16.441Z,11.90
2022-09-21T04:34:43.065Z,11.90
2022-09-21T04:37:10.811Z,11.90
2022-09-21T04:39:37.534Z,11.90
2022-09-21T04:42:08.519Z,11.90
2022-09-21T04:44:35.128Z,11.80
2022-09-21T04:47:03.148Z,11.80
2022-09-21T04:49:29.786Z,11.80
2022-09-21T04:51:56.517Z,11.80
2022-09-21T04:54:23.220Z,11.80
2022-09-21T04:56:51.089Z,11.80
2022-09-21T04:59:19.023Z,11.80
2022-09-21T05:01:45.747Z,11.80
2022-09-21T05:04:12.420Z,11.80
2022-09-21T05:06:40.496Z,11.80
2022-09-21T05:09:47.385Z,11.70
2022-09-21T05:12:14.053Z,11.60
2022-09-21T05:14:42.656Z,11.60
2022-09-21T05:17:09.550Z,11.50
2022-09-21T05:19:37.606Z,11.40
2022-09-21T05:22:04.249Z,11.40
2022-09-21T05:24:31.451Z,11.40
2022-09-21T05:27:00.025Z,11.30
2022-09-21T05:29:26.773Z,11.30
2022-09-21T05:31:56.919Z,11.20
2022-09-21T05:34:36.405Z,11.20
2022-09-21T05:37:28.362Z,11.20
2022-09-21T05:39:56.114Z,11.10
2022-09-21T05:42:22.844Z,11.10
2022-09-21T05:44:50.665Z,11.10
2022-09-21T05:47:17.243Z,11.10
2022-09-21T05:50:05.978Z,11.10
2022-09-21T05:52:36.003Z,11.00
2022-09-21T05:55:07.438Z,11.10
2022-09-21T05:57:53.016Z,11.10
2022-09-21T06:00:20.794Z,11.10
2022-09-21T06:03:06.435Z,11.10
2022-09-21T06:05:33.090Z,11.10
2022-09-21T06:07:59.721Z,11.10
2022-09-21T06:10:27.218Z,11.10
2022-09-21T06:12:53.872Z,11.10
2022-09-21T06:15:21.696Z,11.20
2022-09-21T06:17:50.751Z,11.20
2022-09-21T06:20:17.502Z,11.20
2022-09-21T06:22:44.165Z,11.20
2022-09-21T06:25:11.978Z,11.20
2022-09-21T06:27:40.880Z,11.30
2022-09-21T06:30:08.952Z,11.30
2022-09-21T06:32:35.639Z,11.40
2022-09-21T06:35:02.478Z,11.50
2022-09-21T06:37:29.118Z,11.70
2022-09-21T06:39:55.717Z,11.70
2022-09-21T06:42:22.373Z,11.80
2022-09-21T06:44:49.931Z,11.90
2022-09-21T06:47:16.590Z,12.00
2022-09-21T06:49:43.386Z,12.10
2022-09-21T06:52:10.080Z,12.20
2022-09-21T06:54:37.297Z,12.30
2022-09-21T06:57:03.923Z,12.30
2022-09-21T06:59:31.916Z,12.40
2022-09-21T07:01:58.816Z,12.40
2022-09-21T07:04:25.622Z,12.50
2022-09-21T07:06:52.230Z,12.50
2022-09-21T07:12:07.964Z,12.60
2022-09-21T07:14:34.622Z,12.70
2022-09-21T07:17:01.280Z,12.80
2022-09-21T07:19:28.749Z,13.00
2022-09-21T07:21:55.905Z,13.20
2022-09-21T07:24:22.570Z,13.40
2022-09-21T07:26:50.540Z,13.60
2022-09-21T07:29:17.165Z,13.80
2022-09-21T07:31:45.028Z,14.10
2022-09-21T07:34:12.011Z,14.30
2022-09-21T07:36:38.670Z,14.60
2022-09-21T07:39:05.483Z,14.80
2022-09-21T07:41:32.250Z,15.00
2022-09-21T07:44:01.642Z,15.30
2022-09-21T07:46:28.381Z,15.50
2022-09-21T07:48:55.455Z,15.70
2022-09-21T07:51:24.329Z,15.90
2022-09-21T07:53:55.209Z,16.10
2022-09-21T07:56:25.243Z,16.20
2022-09-21T07:59:06.879Z,16.40
2022-09-21T08:01:35.174Z,16.50
2022-09-21T08:04:02.253Z,16.60
2022-09-21T08:06:35.374Z,16.80
2022-09-21T08:09:03.361Z,16.90
2022-09-21T08:11:30.963Z,17.10
2022-09-21T08:13:59.688Z,17.20
2022-09-21T08:16:26.884Z,17.40
2022-09-21T08:18:55.240Z,17.50
2022-09-21T08:21:26.527Z,17.70
2022-09-21T08:23:53.716Z,17.80
2022-09-21T08:26:20.757Z,17.90
2022-09-21T08:28:51.566Z,18.00
2022-09-21T08:31:19.808Z,18.10
2022-09-21T08:33:47.052Z,18.10
2022-09-21T08:38:14.985Z,18.20
2022-09-21T08:40:42.342Z,18.40
2022-09-21T08:44:29.990Z,18.60
2022-09-21T08:47:15.846Z,18.80
2022-09-21T08:49:48.634Z,18.80
2022-09-21T08:52:18.365Z,18.90
2022-09-21T08:55:00.894Z,19.00
2022-09-21T08:57:33.081Z,19.10
2022-09-21T09:00:02.300Z,19.20
2022-09-21T09:03:07.223Z,19.30
2022-09-21T09:05:52.544Z,19.40
2022-09-21T09:08:47.398Z,19.40
2022-09-21T09:11:31.817Z,19.50
2022-09-21T09:14:17.190Z,19.50
2022-09-21T09:16:43.880Z,19.60
2022-09-21T09:19:46.270Z,19.50
2022-09-21T09:22:19.905Z,19.50
2022-09-21T09:24:58.750Z,19.60
2022-09-21T09:27:32.702Z,19.70
2022-09-21T09:30:06.131Z,19.80
2022-09-21T09:33:00.063Z,19.80
2022-09-21T09:35:34.131Z,19.80
2022-09-21T09:38:05.334Z,19.80
2022-09-21T09:40:53.285Z,19.80
2022-09-21T09:43:43.740Z,19.80
2022-09-21T09:46:22.338Z,19.60
2022-09-21T09:49:13.584Z,19.70
2022-09-21T09:51:40.801Z,19.70
2022-09-21T09:54:17.558Z,19.70
2022-09-21T09:56:44.495Z,19.80
2022-09-21T09:59:39.809Z,19.90
2022-09-21T10:02:20.764Z,19.90
2022-09-21T10:05:06.294Z,19.90
2022-09-21T10:07:47.494Z,19.90
2022-09-21T10:10:32.738Z,20.00
2022-09-21T10:13:33.450Z,19.90
2022-09-21T10:16:15.382Z,19.90
2022-09-21T10:19:01.921Z,20.00
2022-09-21T10:21:37.583Z,20.00
2022-09-21T10:24:07.639Z,20.00
2022-09-21T10:27:16.698Z,19.90
2022-09-21T10:29:49.249Z,19.90
2022-09-21T10:32:18.865Z,19.90
2022-09-21T10:35:07.839Z,19.90
2022-09-21T10:37:48.852Z,19.90
2022-09-21T10:40:28.052Z,19.90
2022-09-21T10:43:00.967Z,19.80
2022-09-21T10:45:30.712Z,19.90
2022-09-21T10:48:14.461Z,19.70
2022-09-21T10:50:46.508Z,19.80
2022-09-21T10:53:25.333Z,19.70
2022-09-21T10:56:17.501Z,19.80
2022-09-21T10:59:11.521Z,19.70
2022-09-21T11:01:52.911Z,19.70
2022-09-21T11:05:02.293Z,19.60
2022-09-21T11:07:58.788Z,19.70
2022-09-21T11:10:42.967Z,19.70
2022-09-21T11:13:19.675Z,19.70
2022-09-21T11:16:05.008Z,19.60
2022-09-21T11:18:58.556Z,19.60
2022-09-21T11:21:44.494Z,19.50
2022-09-21T11:24:39.673Z,19.50
2022-09-21T11:27:18.337Z,19.60
2022-09-21T11:30:11.611Z,19.60
2022-09-21T11:33:17.287Z,19.60
2022-09-21T11:36:29.156Z,19.60
2022-09-21T11:48:29.862Z,19.60
2022-09-21T11:51:23.557Z,19.70
2022-09-21T11:54:20.815Z,19.60
2022-09-21T11:56:57.063Z,19.60
2022-09-21T11:59:42.699Z,19.60
2022-09-21T12:02:31.509Z,19.60
2022-09-21T12:05:15.245Z,19.70
2022-09-21T12:08:04.415Z,19.70
2022-09-21T12:10:54.651Z,19.70
2022-09-21T12:13:46.097Z,19.80
2022-09-21T12:16:26.820Z,19.80
2022-09-21T12:19:04.834Z,19.80
2022-09-21T12:21:42.226Z,19.80
2022-09-21T12:24:21.182Z,19.90
2022-09-21T12:26:57.585Z,19.90
2022-09-21T12:29:47.933Z,19.80
2022-09-21T12:32:17.711Z,19.80
2022-09-21T12:34:49.316Z,19.70
2022-09-21T12:37:22.152Z,19.70
2022-09-21T12:40:07.091Z,19.70
2022-09-21T12:42:46.794Z,19.60
2022-09-21T12:45:32.365Z,19.60
2022-09-21T12:48:14.360Z,19.70
2022-09-21T12:50:48.565Z,19.70
2022-09-21T12:53:21.097Z,19.70
2022-09-21T12:56:09.675Z,19.70
2022-09-21T12:59:12.633Z,19.80
2022-09-21T13:01:57.546Z,19.80
2022-09-21T13:04:50.614Z,19.90
2022-09-21T13:07:23.475Z,19.90
2022-09-21T13:09:51.251Z,19.90
2022-09-21T13:12:24.969Z,19.90
2022-09-21T13:15:01.672Z,19.80
2022-09-21T13:17:33.497Z,19.80
2022-09-21T13:20:17.989Z,19.80
2022-09-21T13:22:49.170Z,19.90
2022-09-21T13:25:24.721Z,19.90
2022-09-21T13:28:09.769Z,19.80
2022-09-21T13:30:44.308Z,19.70
2022-09-21T13:33:23.797Z,19.70
2022-09-21T13:36:02.039Z,19.80
2022-09-21T13:38:34.180Z,19.70
2022-09-21T13:41:03.879Z,19.70
2022-09-21T13:44:04.361Z,19.60
2022-09-21T13:46:36.054Z,19.60
2022-09-21T13:49:15.880Z,19.70
2022-09-21T13:52:19.209Z,19.70
2022-09-21T13:54:54.071Z,19.70
2022-09-21T13:57:32.409Z,19.70
2022-09-21T14:00:06.149Z,19.70
2022-09-21T14:02:37.021Z,19.70
2022-09-21T14:05:26.638Z,19.70
2022-09-21T14:08:14.331Z,19.70
2022-09-21T14:11:02.617Z,19.70
2022-09-21T14:13:40.875Z,19.60
2022-09-21T14:16:29.378Z,19.60
2022-09-21T14:18:56.825Z,19.60
2022-09-21T14:21:23.998Z,19.60
2022-09-21T14:24:08.072Z,19.60
2022-09-21T14:26:39.251Z,19.50
2022-09-21T14:29:19.195Z,19.60
2022-09-21T14:31:47.643Z,19.70
2022-09-21T14:34:25.715Z,19.70
2022-09-21T14:36:58.399Z,19.70
2022-09-21T14:39:35.919Z,19.70
2022-09-21T14:42:12.537Z,19.60
2022-09-21T14:44:42.592Z,19.70
2022-09-21T14:47:28.930Z,19.70
2022-09-21T14:50:20.700Z,19.70
2022-09-21T14:52:53.455Z,19.70
2022-09-21T14:55:28.348Z,19.80
2022-09-21T14:58:33.277Z,19.70
2022-09-21T15:01:20.116Z,19.70
2022-09-21T15:04:11.121Z,19.60
2022-09-21T15:07:23.301Z,19.60
2022-09-21T15:10:37.236Z,19.60
2022-09-21T15:13:20.174Z,19.60
2022-09-21T15:16:11.700Z,19.50
2022-09-21T15:18:42.058Z,19.50
2022-09-21T15:21:30.223Z,19.50
2022-09-21T15:23:59.168Z,19.50
2022-09-21T15:26:33.363Z,19.50
2022-09-21T15:29:09.592Z,19.50
2022-09-21T15:31:41.926Z,19.50
2022-09-21T15:34:11.186Z,19.40
2022-09-21T15:36:40.902Z,19.40
2022-09-21T15:39:22.257Z,19.40
2022-09-21T15:41:51.463Z,19.40
2022-09-21T15:44:22.806Z,19.40
2022-09-21T15:46:55.342Z,19.40
2022-09-21T15:49:23.845Z,19.40
2022-09-21T15:52:22.549Z,19.40
2022-09-21T15:54:58.049Z,19.40
2022-09-21T15:57:39.428Z,19.40
2022-09-21T16:00:15.792Z,19.40
2022-09-21T16:02:51.793Z,19.40
2022-09-21T16:05:22.245Z,19.40
2022-09-21T16:07:49.676Z,19.40
2022-09-21T16:10:38.651Z,19.40
2022-09-21T16:13:42.399Z,19.40
2022-09-21T16:16:10.181Z,19.40
2022-09-21T16:18:47.078Z,19.40
2022-09-21T16:21:33.871Z,19.40
2022-09-21T16:24:19.497Z,19.40
2022-09-21T16:26:58.348Z,19.40
2022-09-21T16:29:27.785Z,19.30
2022-09-21T16:32:27.168Z,19.30
2022-09-21T16:35:15.207Z,19.30
2022-09-21T16:37:43.761Z,19.30
2022-09-21T16:40:11.580Z,19.30
2022-09-21T16:42:38.430Z,19.30
2022-09-21T16:45:16.849Z,19.20
2022-09-21T16:47:43.525Z,19.20
2022-09-21T16:50:16.179Z,19.20
2022-09-21T16:52:45.456Z,19.20
2022-09-21T16:55:12.424Z,19.20
2022-09-21T16:57:42.630Z,19.10
2022-09-21T17:00:14.182Z,19.20
2022-09-21T17:02:45.244Z,19.10
2022-09-21T17:05:16.078Z,19.20
2022-09-21T17:07:55.298Z,19.10
2022-09-21T17:10:29.204Z,19.10
2022-09-21T17:12:56.202Z,19.10
2022-09-21T17:15:26.057Z,19.10
2022-09-21T17:17:54.286Z,19.00
2022-09-21T17:26:30.115Z,19.00
2022-09-21T17:37:01.038Z,18.90
2022-09-21T17:39:34.362Z,18.80
2022-09-21T17:42:05.034Z,18.80
2022-09-21T17:45:02.055Z,18.70
2022-09-21T17:47:30.899Z,18.60
2022-09-21T17:52:54.708Z,18.50
2022-09-21T17:55:21.719Z,18.40
2022-09-21T17:58:05.863Z,18.30
2022-09-21T18:00:52.707Z,18.20
2022-09-21T18:04:06.157Z,18.20
2022-09-21T18:06:36.065Z,18.10
2022-09-21T18:09:04.302Z,18.00
2022-09-21T18:11:55.925Z,18.00
2022-09-21T18:14:39.328Z,17.90
2022-09-21T18:17:39.628Z,17.90
2022-09-21T18:20:39.305Z,17.80
2022-09-21T18:23:15.229Z,17.80
2022-09-21T18:25:50.477Z,17.80
2022-09-21T18:28:23.773Z,17.70
2022-09-21T18:31:32.326Z,17.70
2022-09-21T18:34:17.438Z,17.60
2022-09-21T18:37:14.001Z,17.60
2022-09-21T18:39:57.482Z,17.50
2022-09-21T18:42:40.425Z,17.40
2022-09-21T18:45:20.174Z,17.40
2022-09-21T18:47:50.171Z,17.30
2022-09-21T18:50:29.587Z,17.20
2022-09-21T18:53:30.468Z,17.10
2022-09-21T18:55:57.929Z,17.00
2022-09-21T18:58:24.950Z,17.00
2022-09-21T19:00:52.129Z,17.00
2022-09-21T19:03:21.971Z,16.90
2022-09-21T19:06:11.725Z,16.90
2022-09-21T19:08:46.980Z,16.80
2022-09-21T19:11:31.796Z,16.80
2022-09-21T19:14:17.561Z,16.70
2022-09-21T19:17:21.167Z,16.60
2022-09-21T19:20:25.921Z,16.50
2022-09-21T19:23:12.009Z,16.40
2022-09-21T19:28:36.724Z,16.10
2022-09-21T19:31:11.067Z,16.00
2022-09-21T19:33:50.006Z,16.00
2022-09-21T19:36:19.110Z,16.00
2022-09-21T19:38:46.297Z,15.90
2022-09-21T19:41:42.194Z,15.90
2022-09-21T19:44:11.619Z,15.80
2022-09-21T19:46:57.373Z,15.80
2022-09-21T19:49:30.125Z,15.70
2022-09-21T19:51:59.013Z,15.70
2022-09-21T19:54:44.815Z,15.60
2022-09-21T19:57:38.798Z,15.60
2022-09-21T20:00:12.290Z,15.50
2022-09-21T20:03:17.648Z,15.50
2022-09-21T20:06:19.234Z,15.50
2022-09-21T20:09:18.517Z,15.50
2022-09-21T20:12:01.455Z,15.50
2022-09-21T20:14:34.327Z,15.50
2022-09-21T20:17:10.580Z,15.50
2022-09-21T20:19:56.069Z,15.50
2022-09-21T20:22:36.050Z,15.40
2022-09-21T20:25:18.813Z,15.30
2022-09-21T20:27:50.734Z,15.30
2022-09-21T20:30:21.030Z,15.30
2022-09-21T20:32:52.585Z,15.30
2022-09-21T20:35:22.235Z,15.30
2022-09-21T20:37:50.563Z,15.20
2022-09-21T20:40:18.459Z,15.20
2022-09-21T20:42:45.338Z,15.20
2022-09-21T20:45:13.509Z,15.10
2022-09-21T20:47:41.438Z,15.10
2022-09-21T20:50:13.580Z,15.10
2022-09-21T20:52:41.863Z,15.10
2022-09-21T20:55:21.634Z,15.00
2022-09-21T20:57:48.762Z,15.00
2022-09-21T21:00:16.798Z,15.00
2022-09-21T21:02:43.555Z,14.90
2022-09-21T21:05:12.498Z,14.90
2022-09-21T21:07:42.583Z,14.90
2022-09-21T21:10:14.123Z,14.80
2022-09-21T21:12:41.998Z,14.90
2022-09-21T21:15:12.715Z,14.90
2022-09-21T21:17:40.478Z,14.80
2022-09-21T21:20:08.772Z,14.80
2022-09-21T21:22:35.880Z,14.80
2022-09-21T21:25:03.608Z,14.80
2022-09-21T21:27:34.049Z,14.70
2022-09-21T21:30:01.588Z,14.70
2022-09-21T21:32:28.866Z,14.70
2022-09-21T21:34:57.105Z,14.60
2022-09-21T21:37:26.509Z,14.60
2022-09-21T21:39:54.142Z,14.60
2022-09-21T21:42:23.906Z,14.60
2022-09-21T21:44:51.694Z,14.50
2022-09-21T21:47:40.539Z,14.50
2022-09-21T21:50:08.619Z,14.40
2022-09-21T21:52:36.609Z,14.40
2022-09-21T21:55:04.621Z,14.30
2022-09-21T21:57:31.398Z,14.20
2022-09-21T21:59:59.187Z,14.10
2022-09-21T22:02:30.918Z,14.10
2022-09-21T22:04:58.046Z,14.10
2022-09-21T22:07:24.718Z,14.10
2022-09-21T22:09:52.432Z,14.10
2022-09-21T22:12:19.619Z,14.10
2022-09-21T22:14:47.717Z,14.10
2022-09-21T22:17:14.534Z,14.10
2022-09-21T22:19:43.908Z,14.10
2022-09-21T22:22:10.656Z,14.10
2022-09-21T22:24:37.385Z,14.00
2022-09-21T22:27:05.381Z,14.00
2022-09-21T22:29:37.293Z,13.90
2022-09-21T22:32:04.306Z,13.90
2022-09-21T22:34:31.193Z,13.80
2022-09-21T22:36:59.117Z,13.80
2022-09-21T22:39:25.869Z,13.80
2022-09-21T22:41:52.699Z,13.80
2022-09-21T22:44:19.948Z,13.80
2022-09-21T22:46:46.687Z,13.80
2022-09-21T22:49:13.420Z,13.80
2022-09-21T22:51:40.292Z,13.70
2022-09-21T22:54:07.244Z,13.70
2022-09-21T22:56:34.633Z,13.70
2022-09-21T22:59:02.641Z,13.70
2022-09-21T23:01:35.723Z,13.70
2022-09-21T23:04:13.781Z,13.70
2022-09-21T23:06:43.339Z,13.70
2022-09-21T23:09:15.001Z,13.70
2022-09-21T23:11:43.928Z,13.70
2022-09-21T23:14:11.999Z,13.70
2022-09-21T23:16:38.757Z,13.60
2022-09-21T23:19:07.274Z,13.60
2022-09-21T23:21:35.118Z,13.60
2022-09-21T23:24:03.306Z,13.60
2022-09-21T23:26:34.711Z,13.50
2022-09-21T23:29:04.659Z,13.50
2022-09-21T23:31:32.465Z,13.50
2022-09-21T23:34:04.844Z,13.50
2022-09-21T23:36:32.520Z,13.50
2022-09-21T23:38:59.938Z,13.40
2022-09-21T23:41:29.508Z,13.40
2022-09-21T23:43:57.051Z,13.40
2022-09-21T23:46:29.974Z,13.40
2022-09-21T23:49:00.850Z,13.30
2022-09-21T23:51:29.961Z,13.30
2022-09-21T23:53:57.380Z,13.20
2022-09-21T23:56:24.660Z,13.20
2022-09-21T23:58:52.104Z,13.10
